createdAt,value
2022-08-19T00:02:10.557Z,6.53
2022-08-19T00:04:37.953Z,7.40
2022-08-19T00:07:06.751Z,7.23
2022-08-19T00:09:35.052Z,7.07
2022-08-19T00:12:03.594Z,6.77
2022-08-19T00:14:33.872Z,6.93
2022-08-19T00:17:04.067Z,6.90
2022-08-19T00:19:31.306Z,6.93
2022-08-19T00:21:58.202Z,7.10
2022-08-19T00:24:25.830Z,7.33
2022-08-19T00:26:56.126Z,6.60
2022-08-19T00:29:24.120Z,6.87
2022-08-19T00:31:54.509Z,6.70
2022-08-19T00:34:22.810Z,6.93
2022-08-19T00:36:50.123Z,6.90
2022-08-19T00:39:18.243Z,7.57
2022-08-19T00:41:48.518Z,7.57
2022-08-19T00:44:26.909Z,7.00
2022-08-19T00:46:58.745Z,6.90
2022-08-19T00:49:31.126Z,7.10
2022-08-19T00:52:03.146Z,6.23
2022-08-19T00:54:32.468Z,6.97
2022-08-19T00:57:00.816Z,7.20
2022-08-19T00:59:56.104Z,7.10
2022-08-19T01:02:18.051Z,7.10
2022-08-19T01:04:44.931Z,7.23
2022-08-19T01:07:15.142Z,7.53
2022-08-19T01:09:45.017Z,7.67
2022-08-19T01:12:12.882Z,8.10
2022-08-19T01:14:41.065Z,8.70
2022-08-19T01:17:11.903Z,8.87
2022-08-19T01:19:43.700Z,8.00
2022-08-19T01:22:34.190Z,8.50
2022-08-19T01:25:02.179Z,8.77
2022-08-19T01:27:45.906Z,7.87
2022-08-19T01:30:16.515Z,7.83
2022-08-19T01:32:44.318Z,6.97
2022-08-19T01:35:13.653Z,8.57
2022-08-19T01:37:56.198Z,8.37
2022-08-19T01:40:26.148Z,8.40
2022-08-19T01:42:54.678Z,8.67
2022-08-19T01:45:24.155Z,8.13
2022-08-19T01:48:01.756Z,8.07
2022-08-19T01:50:31.818Z,8.23
2022-08-19T01:53:06.201Z,8.87
2022-08-19T01:55:40.609Z,8.70
2022-08-19T01:58:14.762Z,8.67
2022-08-19T02:00:42.358Z,8.60
2022-08-19T02:03:10.375Z,8.50
2022-08-19T02:05:37.765Z,8.70
2022-08-19T02:08:05.507Z,9.93
2022-08-19T02:10:33.145Z,9.13
2022-08-19T02:13:00.997Z,9.43
2022-08-19T02:15:28.889Z,9.20
2022-08-19T02:17:55.803Z,9.13
2022-08-19T02:20:23.490Z,9.40
2022-08-19T02:22:53.648Z,9.47
2022-08-19T02:25:23.582Z,8.80
2022-08-19T02:27:51.697Z,9.17
2022-08-19T02:30:19.984Z,9.37
2022-08-19T02:32:48.066Z,10.60
2022-08-19T02:35:15.246Z,10.00
2022-08-19T02:38:01.794Z,9.90
2022-08-19T02:40:35.603Z,9.60
2022-08-19T02:43:10.000Z,9.20
2022-08-19T02:45:41.460Z,9.80
2022-08-19T02:48:12.739Z,9.23
2022-08-19T02:50:56.457Z,8.97
2022-08-19T02:53:26.136Z,9.30
2022-08-19T02:55:53.445Z,9.80
2022-08-19T02:58:22.271Z,9.37
2022-08-19T03:00:52.444Z,10.07
2022-08-19T03:03:20.459Z,9.60
2022-08-19T03:05:56.315Z,9.37
2022-08-19T03:08:26.550Z,9.43
2022-08-19T03:10:54.284Z,9.63
2022-08-19T03:13:22.494Z,10.20
2022-08-19T03:15:49.596Z,9.93
2022-08-19T03:18:18.121Z,9.30
2022-08-19T03:20:48.108Z,9.40
2022-08-19T03:23:17.112Z,9.67
2022-08-19T03:25:47.598Z,9.63
2022-08-19T03:28:31.419Z,11.10
2022-08-19T03:31:05.635Z,10.47
2022-08-19T03:33:52.835Z,11.30
2022-08-19T03:36:25.690Z,11.00
2022-08-19T03:38:59.623Z,10.33
2022-08-19T03:41:34.382Z,10.00
2022-08-19T03:44:16.670Z,10.23
2022-08-19T03:46:46.759Z,11.03
2022-08-19T03:49:14.167Z,10.53
2022-08-19T03:51:42.790Z,10.73
2022-08-19T03:54:12.074Z,9.67
2022-08-19T03:56:40.527Z,10.60
2022-08-19T03:59:14.451Z,10.90
2022-08-19T04:01:43.163Z,11.60
2022-08-19T04:04:13.229Z,11.67
2022-08-19T04:06:40.637Z,10.77
2022-08-19T04:09:09.894Z,11.03
2022-08-19T04:11:44.271Z,10.73
2022-08-19T04:14:21.855Z,11.20
2022-08-19T04:16:50.114Z,11.67
2022-08-19T04:19:18.357Z,11.60
2022-08-19T04:21:48.192Z,11.73
2022-08-19T04:24:16.150Z,11.03
2022-08-19T04:26:43.658Z,11.63
2022-08-19T04:29:17.131Z,12.03
2022-08-19T04:31:46.147Z,12.40
2022-08-19T04:34:15.516Z,13.10
2022-08-19T04:36:45.599Z,13.47
2022-08-19T04:39:17.487Z,12.43
2022-08-19T04:42:05.033Z,13.23
2022-08-19T04:44:33.502Z,14.90
2022-08-19T04:47:10.955Z,16.93
2022-08-19T04:49:42.377Z,15.77
2022-08-19T04:52:10.530Z,15.67
2022-08-19T04:54:39.361Z,15.00
2022-08-19T04:57:11.310Z,18.13
2022-08-19T04:59:41.056Z,18.77
2022-08-19T05:02:09.895Z,18.20
2022-08-19T05:04:40.414Z,20.43
2022-08-19T05:07:09.228Z,28.47
2022-08-19T05:09:57.798Z,25.40
2022-08-19T05:12:26.755Z,21.93
2022-08-19T05:14:57.910Z,20.57
2022-08-19T05:17:28.960Z,20.13
2022-08-19T05:20:17.195Z,22.37
2022-08-19T05:22:47.235Z,21.60
2022-08-19T05:25:19.572Z,21.53
2022-08-19T05:27:47.136Z,20.90
2022-08-19T05:30:15.822Z,20.93
2022-08-19T05:32:44.184Z,21.40
2022-08-19T05:35:12.951Z,24.43
2022-08-19T05:37:44.835Z,23.23
2022-08-19T05:40:12.174Z,23.33
2022-08-19T05:42:39.449Z,23.60
2022-08-19T05:45:08.164Z,21.27
2022-08-19T05:47:36.171Z,22.33
2022-08-19T05:50:10.983Z,22.90
2022-08-19T05:52:39.215Z,22.60
2022-08-19T05:55:12.001Z,23.47
2022-08-19T05:57:39.377Z,21.33
2022-08-19T06:00:11.248Z,22.40
2022-08-19T06:02:39.034Z,22.10
2022-08-19T06:05:10.414Z,24.50
2022-08-19T06:07:39.235Z,20.70
2022-08-19T06:10:08.447Z,22.60
2022-08-19T06:12:36.618Z,20.97
2022-08-19T06:15:07.518Z,21.77
2022-08-19T06:17:36.355Z,20.30
2022-08-19T06:20:09.820Z,21.33
2022-08-19T06:22:41.740Z,20.30
2022-08-19T06:25:13.257Z,19.77
2022-08-19T06:30:31.363Z,21.00
2022-08-19T06:32:58.238Z,21.70
2022-08-19T06:35:25.496Z,18.93
2022-08-19T06:37:53.585Z,20.03
2022-08-19T06:40:21.621Z,19.53
2022-08-19T06:42:54.548Z,20.27
2022-08-19T06:45:24.946Z,20.30
2022-08-19T06:48:02.111Z,21.43
2022-08-19T06:50:31.097Z,20.27
2022-08-19T06:52:58.215Z,19.80
2022-08-19T06:55:33.455Z,20.63
2022-08-19T06:58:04.776Z,19.98
2022-08-19T07:03:03.046Z,15.75
2022-08-19T07:05:33.293Z,16.13
2022-08-19T07:08:04.809Z,16.23
2022-08-19T07:10:33.920Z,19.27
2022-08-19T07:13:01.274Z,20.55
2022-08-19T07:15:28.326Z,17.92
2022-08-19T07:17:58.395Z,17.75
2022-08-19T07:20:28.508Z,19.80
2022-08-19T07:22:56.094Z,18.83
2022-08-19T07:25:32.424Z,19.13
2022-08-19T07:28:01.420Z,18.35
2022-08-19T07:30:28.793Z,16.20
2022-08-19T07:32:58.396Z,18.42
2022-08-19T07:35:26.103Z,18.37
2022-08-19T07:37:56.224Z,18.77
2022-08-19T07:40:23.467Z,19.70
2022-08-19T07:42:50.444Z,19.03
2022-08-19T07:45:17.505Z,21.97
2022-08-19T07:47:50.423Z,23.77
2022-08-19T07:50:20.443Z,24.37
2022-08-19T07:52:49.136Z,24.00
2022-08-19T07:55:40.674Z,22.07
2022-08-19T07:58:09.868Z,19.73
2022-08-19T08:00:37.024Z,23.83
2022-08-19T08:03:05.711Z,24.60
2022-08-19T08:05:51.334Z,23.97
2022-08-19T08:08:36.826Z,26.73
2022-08-19T08:11:07.682Z,27.67
2022-08-19T08:13:39.078Z,27.07
2022-08-19T08:16:07.588Z,23.03
2022-08-19T08:18:43.147Z,26.20
2022-08-19T08:21:10.276Z,28.20
2022-08-19T08:23:37.198Z,25.30
2022-08-19T08:26:06.880Z,24.40
2022-08-19T08:28:40.356Z,24.90
2022-08-19T08:31:09.554Z,27.37
2022-08-19T08:33:37.096Z,25.47
2022-08-19T08:36:06.456Z,25.73
2022-08-19T08:38:38.927Z,29.03
2022-08-19T08:41:29.690Z,28.77
2022-08-19T08:43:58.518Z,28.60
2022-08-19T08:46:36.239Z,27.25
2022-08-19T08:49:09.748Z,27.80
2022-08-19T08:52:05.448Z,28.48
2022-08-19T08:54:54.728Z,30.40
2022-08-19T08:57:37.000Z,30.52
2022-08-19T09:00:20.931Z,29.52
2022-08-19T09:02:50.434Z,29.00
2022-08-19T09:05:22.233Z,26.88
2022-08-19T09:08:05.150Z,30.52
2022-08-19T09:10:44.833Z,26.80
2022-08-19T09:13:54.890Z,24.08
2022-08-19T09:16:28.025Z,20.45
2022-08-19T09:18:59.986Z,19.13
2022-08-19T09:21:33.170Z,19.90
2022-08-19T09:24:05.480Z,20.00
2022-08-19T09:26:47.208Z,20.73
2022-08-19T09:29:18.411Z,20.15
2022-08-19T09:31:48.976Z,22.25
2022-08-19T09:34:20.673Z,19.55
2022-08-19T09:36:56.862Z,20.75
2022-08-19T09:39:24.052Z,19.95
2022-08-19T09:41:51.327Z,18.60
2022-08-19T09:44:21.268Z,16.13
2022-08-19T09:46:49.346Z,17.55
2022-08-19T09:49:22.788Z,17.98
2022-08-19T09:51:56.305Z,18.08
2022-08-19T09:54:25.352Z,14.30
2022-08-19T09:56:59.882Z,15.27
2022-08-19T09:59:28.140Z,16.40
2022-08-19T10:01:55.506Z,14.93
2022-08-19T10:04:49.798Z,14.25
2022-08-19T10:07:17.599Z,17.30
2022-08-19T10:09:45.085Z,14.75
2022-08-19T10:12:17.816Z,16.13
2022-08-19T10:14:47.491Z,10.95
2022-08-19T10:17:17.655Z,11.43
2022-08-19T10:19:55.286Z,11.90
2022-08-19T10:22:25.499Z,10.63
2022-08-19T10:24:54.382Z,10.77
2022-08-19T10:27:22.367Z,12.77
2022-08-19T10:29:49.501Z,14.57
2022-08-19T10:32:17.397Z,14.77
2022-08-19T10:34:48.205Z,12.83
2022-08-19T10:37:23.638Z,10.60
2022-08-19T10:39:56.365Z,13.17
2022-08-19T10:42:23.508Z,12.73
2022-08-19T10:44:51.832Z,13.33
2022-08-19T10:47:25.488Z,10.40
2022-08-19T10:50:14.352Z,12.50
2022-08-19T10:52:50.613Z,13.87
2022-08-19T10:55:40.375Z,13.82
2022-08-19T10:58:13.431Z,12.97
2022-08-19T11:00:41.700Z,14.00
2022-08-19T11:03:09.507Z,12.77
2022-08-19T11:05:39.844Z,13.47
2022-08-19T11:08:23.303Z,13.50
2022-08-19T11:11:01.687Z,12.53
2022-08-19T11:13:30.449Z,12.77
2022-08-19T11:16:09.654Z,12.97
2022-08-19T11:18:40.328Z,10.40
2022-08-19T11:21:21.100Z,9.20
2022-08-19T11:23:50.368Z,9.70
2022-08-19T11:26:18.722Z,10.53
2022-08-19T11:28:46.218Z,11.10
2022-08-19T11:31:15.871Z,10.53
2022-08-19T11:33:47.648Z,9.77
2022-08-19T11:36:16.374Z,10.60
2022-08-19T11:38:45.037Z,9.57
2022-08-19T11:41:12.605Z,7.93
2022-08-19T11:43:40.814Z,9.20
2022-08-19T11:46:16.004Z,9.70
2022-08-19T11:48:44.387Z,9.63
2022-08-19T11:51:15.595Z,9.37
2022-08-19T11:53:42.993Z,8.67
2022-08-19T11:56:10.877Z,7.83
2022-08-19T11:58:38.743Z,9.00
2022-08-19T12:01:10.284Z,9.23
2022-08-19T12:03:39.423Z,8.60
2022-08-19T12:06:08.523Z,8.73
2022-08-19T12:08:37.061Z,7.90
2022-08-19T12:11:05.113Z,8.73
2022-08-19T12:13:33.338Z,8.97
2022-08-19T12:16:00.939Z,9.30
2022-08-19T12:18:28.356Z,8.90
2022-08-19T12:20:55.753Z,9.20
2022-08-19T12:23:24.107Z,7.60
2022-08-19T12:25:54.178Z,9.23
2022-08-19T12:28:22.658Z,8.13
2022-08-19T12:30:52.211Z,6.83
2022-08-19T12:33:25.137Z,7.10
2022-08-19T12:35:52.987Z,7.87
2022-08-19T12:38:21.051Z,7.80
2022-08-19T12:40:49.805Z,8.70
2022-08-19T12:43:17.184Z,9.47
2022-08-19T12:45:46.098Z,8.33
2022-08-19T12:48:33.544Z,8.80
2022-08-19T12:51:08.231Z,8.13
2022-08-19T12:53:39.168Z,7.73
2022-08-19T12:56:11.532Z,7.60
2022-08-19T12:58:49.104Z,7.40
2022-08-19T13:01:22.561Z,8.93
2022-08-19T13:03:54.814Z,8.53
2022-08-19T13:06:22.462Z,8.13
2022-08-19T13:08:49.721Z,7.40
2022-08-19T13:11:21.264Z,7.50
2022-08-19T13:13:51.297Z,7.40
2022-08-19T13:16:21.255Z,7.90
2022-08-19T13:18:49.097Z,6.63
2022-08-19T13:21:16.532Z,7.37
2022-08-19T13:23:43.764Z,6.67
2022-08-19T13:26:12.452Z,7.13
2022-08-19T13:28:59.204Z,6.90
2022-08-19T13:31:47.709Z,5.80
2022-08-19T13:34:16.611Z,6.07
2022-08-19T13:36:44.069Z,6.17
2022-08-19T13:39:13.749Z,6.50
2022-08-19T13:41:48.914Z,6.80
2022-08-19T13:44:19.258Z,5.70
2022-08-19T13:46:50.457Z,6.70
2022-08-19T13:49:21.622Z,6.23
2022-08-19T13:51:49.341Z,6.33
2022-08-19T13:54:17.649Z,6.20
2022-08-19T13:56:47.154Z,6.53
2022-08-19T13:59:14.448Z,6.50
2022-08-19T14:01:43.910Z,8.13
2022-08-19T14:04:11.204Z,7.23
2022-08-19T14:06:38.355Z,6.97
2022-08-19T14:09:06.791Z,6.27
2022-08-19T14:11:33.756Z,6.03
2022-08-19T14:14:00.846Z,6.70
2022-08-19T14:16:29.259Z,6.73
2022-08-19T14:18:57.419Z,6.27
2022-08-19T14:21:26.400Z,5.67
2022-08-19T14:23:55.414Z,6.30
2022-08-19T14:26:24.160Z,6.17
2022-08-19T14:28:53.939Z,6.40
2022-08-19T14:31:29.004Z,5.80
2022-08-19T14:33:57.871Z,6.00
2022-08-19T14:36:25.140Z,5.53
2022-08-19T14:38:52.437Z,5.80
2022-08-19T14:41:22.923Z,6.20
2022-08-19T14:43:52.955Z,6.07
2022-08-19T14:46:22.751Z,5.63
2022-08-19T14:48:51.788Z,4.80
2022-08-19T14:51:21.473Z,4.90
2022-08-19T14:53:53.342Z,4.87
2022-08-19T14:56:24.855Z,3.93
2022-08-19T14:58:53.231Z,4.10
2022-08-19T15:01:22.990Z,4.20
2022-08-19T15:03:57.317Z,3.83
2022-08-19T15:06:26.539Z,3.97
2022-08-19T15:08:55.255Z,3.73
2022-08-19T15:11:26.118Z,3.57
2022-08-19T15:13:54.114Z,3.43
2022-08-19T15:16:22.388Z,3.63
2022-08-19T15:18:55.534Z,3.80
2022-08-19T15:21:27.374Z,3.30
2022-08-19T15:23:57.343Z,3.40
2022-08-19T15:26:26.342Z,3.63
2022-08-19T15:28:53.721Z,3.10
2022-08-19T15:31:28.448Z,3.07
2022-08-19T15:33:59.840Z,3.13
2022-08-19T15:36:28.167Z,3.10
2022-08-19T15:38:58.238Z,2.70
2022-08-19T15:41:34.250Z,2.70
2022-08-19T15:44:10.353Z,2.47
2022-08-19T15:46:40.313Z,2.83
2022-08-19T15:49:08.404Z,2.47
2022-08-19T15:51:37.036Z,2.60
2022-08-19T15:54:07.056Z,2.67
2022-08-19T15:56:57.941Z,2.40
2022-08-19T15:59:47.052Z,2.90
2022-08-19T16:02:38.223Z,2.30
2022-08-19T16:05:28.838Z,3.17
2022-08-19T16:07:57.729Z,2.90
2022-08-19T16:10:30.044Z,3.73
2022-08-19T16:12:59.691Z,3.27
2022-08-19T16:15:32.811Z,3.20
2022-08-19T16:18:05.261Z,3.10
2022-08-19T16:20:37.011Z,3.13
2022-08-19T16:23:05.941Z,3.20
2022-08-19T16:25:37.535Z,2.50
2022-08-19T16:28:07.953Z,3.20
2022-08-19T16:30:39.420Z,3.20
2022-08-19T16:33:12.737Z,2.57
2022-08-19T16:35:58.442Z,2.20
2022-08-19T16:38:30.784Z,2.30
2022-08-19T16:41:02.000Z,2.30
2022-08-19T16:43:35.103Z,2.30
2022-08-19T16:46:03.568Z,2.10
2022-08-19T16:48:31.377Z,2.57
2022-08-19T16:51:02.999Z,2.13
2022-08-19T16:53:33.042Z,2.13
2022-08-19T16:56:01.849Z,2.40
2022-08-19T16:58:34.473Z,2.13
2022-08-19T17:01:06.248Z,2.17
2022-08-19T17:03:36.496Z,1.90
2022-08-19T17:06:17.837Z,2.00
2022-08-19T17:08:50.187Z,2.20
2022-08-19T17:11:19.464Z,2.50
2022-08-19T17:13:48.549Z,2.10
2022-08-19T17:16:24.961Z,2.00
2022-08-19T17:18:54.161Z,2.50
2022-08-19T17:21:28.546Z,1.87
2022-08-19T17:23:57.163Z,2.63
2022-08-19T17:26:25.589Z,2.30
2022-08-19T17:28:55.260Z,2.27
2022-08-19T17:31:25.506Z,2.60
2022-08-19T17:33:52.980Z,2.20
2022-08-19T17:36:25.215Z,2.77
2022-08-19T17:38:55.576Z,2.70
2022-08-19T17:41:25.045Z,2.67
2022-08-19T17:43:53.134Z,2.70
2022-08-19T17:46:20.849Z,3.23
2022-08-19T17:48:52.771Z,3.27
2022-08-19T17:51:27.512Z,3.00
2022-08-19T17:53:55.216Z,4.00
2022-08-19T17:56:23.659Z,2.63
2022-08-19T17:58:59.746Z,6.73
2022-08-19T18:01:35.504Z,4.90
2022-08-19T18:04:19.094Z,3.90
2022-08-19T18:06:53.261Z,2.60
2022-08-19T18:09:25.181Z,3.13
2022-08-19T18:11:55.670Z,3.10
2022-08-19T18:14:33.310Z,2.67
2022-08-19T18:17:14.307Z,3.60
2022-08-19T18:19:43.969Z,3.17
2022-08-19T18:22:37.049Z,3.10
2022-08-19T18:25:12.089Z,3.20
2022-08-19T18:27:39.677Z,3.20
2022-08-19T18:30:08.750Z,2.80
2022-08-19T18:32:45.680Z,6.20
2022-08-19T18:35:16.934Z,8.57
2022-08-19T18:37:49.775Z,7.73
2022-08-19T18:40:39.758Z,4.97
2022-08-19T18:43:26.031Z,3.30
2022-08-19T18:46:39.520Z,2.90
2022-08-19T18:49:11.225Z,3.20
2022-08-19T18:51:38.435Z,2.87
2022-08-19T18:54:05.529Z,3.50
2022-08-19T18:56:33.488Z,3.70
2022-08-19T18:59:01.069Z,3.90
2022-08-19T19:01:37.042Z,3.10
2022-08-19T19:04:10.657Z,2.57
2022-08-19T19:06:40.736Z,3.10
2022-08-19T19:09:13.819Z,3.73
2022-08-19T19:11:45.538Z,3.30
2022-08-19T19:14:32.729Z,3.37
2022-08-19T19:17:07.280Z,2.93
2022-08-19T19:19:34.942Z,2.30
2022-08-19T19:22:03.000Z,4.00
2022-08-19T19:24:33.479Z,2.77
2022-08-19T19:27:06.954Z,3.00
2022-08-19T19:29:37.543Z,2.87
2022-08-19T19:32:07.292Z,3.73
2022-08-19T19:34:35.150Z,3.03
2022-08-19T19:37:02.577Z,2.70
2022-08-19T19:39:44.837Z,2.20
2022-08-19T19:42:20.537Z,2.10
2022-08-19T19:44:50.483Z,2.43
2022-08-19T19:47:19.248Z,2.30
2022-08-19T19:50:13.360Z,1.70
2022-08-19T19:52:39.995Z,1.70
2022-08-19T19:55:09.506Z,1.63
2022-08-19T19:57:40.064Z,1.93
2022-08-19T20:00:08.899Z,2.00
2022-08-19T20:02:36.024Z,1.87
2022-08-19T20:05:03.677Z,1.90
2022-08-19T20:08:06.088Z,1.90
2022-08-19T20:10:33.463Z,2.60
2022-08-19T20:13:05.195Z,2.20
2022-08-19T20:15:32.594Z,2.47
2022-08-19T20:18:01.026Z,3.10
2022-08-19T20:20:28.276Z,2.70
2022-08-19T20:22:55.106Z,2.53
2022-08-19T20:25:22.360Z,2.50
2022-08-19T20:27:49.422Z,1.80
2022-08-19T20:30:19.419Z,2.17
2022-08-19T20:33:14.692Z,2.30
2022-08-19T20:35:43.121Z,1.80
2022-08-19T20:38:13.687Z,1.90
2022-08-19T20:40:41.209Z,1.90
2022-08-19T20:43:12.885Z,1.70
2022-08-19T20:45:41.009Z,1.73
2022-08-19T20:48:12.612Z,1.80
2022-08-19T20:50:40.958Z,2.07
2022-08-19T20:53:14.290Z,3.23
2022-08-19T20:55:44.687Z,2.20
2022-08-19T20:58:13.713Z,1.90
2022-08-19T21:00:42.292Z,2.50
2022-08-19T21:03:09.689Z,1.90
2022-08-19T21:05:37.666Z,1.80
2022-08-19T21:08:05.341Z,1.40
2022-08-19T21:10:32.920Z,1.90
2022-08-19T21:13:00.511Z,1.83
2022-08-19T21:15:28.269Z,1.40
2022-08-19T21:17:56.801Z,2.23
2022-08-19T21:20:25.079Z,1.70
2022-08-19T21:22:52.421Z,1.70
2022-08-19T21:25:19.652Z,1.57
2022-08-19T21:27:48.478Z,1.70
2022-08-19T21:30:15.849Z,1.40
2022-08-19T21:32:43.093Z,1.40
2022-08-19T21:35:10.874Z,1.53
2022-08-19T21:37:38.862Z,1.60
2022-08-19T21:40:07.367Z,1.87
2022-08-19T21:42:35.191Z,1.53
2022-08-19T21:45:03.333Z,1.53
2022-08-19T21:47:31.003Z,1.50
2022-08-19T21:49:58.906Z,1.40
2022-08-19T21:52:28.504Z,1.70
2022-08-19T21:54:56.300Z,1.80
2022-08-19T21:57:24.734Z,1.57
2022-08-19T21:59:53.995Z,1.60
2022-08-19T22:02:24.303Z,1.63
2022-08-19T22:04:52.999Z,1.40
2022-08-19T22:07:22.096Z,1.53
2022-08-19T22:16:25.789Z,1.57
2022-08-19T22:19:13.855Z,1.40
2022-08-19T22:22:01.444Z,1.73
2022-08-19T22:24:53.380Z,2.60
2022-08-19T22:27:40.964Z,2.00
2022-08-19T22:30:33.393Z,2.33
2022-08-19T22:33:22.471Z,2.00
2022-08-19T22:36:10.097Z,1.97
2022-08-19T22:38:58.675Z,2.23
2022-08-19T22:41:46.497Z,2.10
2022-08-19T22:44:34.434Z,2.30
2022-08-19T22:47:21.735Z,2.30
2022-08-19T22:50:13.900Z,1.80
2022-08-19T22:53:02.759Z,2.17
2022-08-19T22:55:49.943Z,2.13
2022-08-19T22:58:38.297Z,2.20
2022-08-19T23:01:30.237Z,2.43
2022-08-19T23:04:18.019Z,2.30
2022-08-19T23:07:06.435Z,2.13
2022-08-19T23:09:53.658Z,2.37
2022-08-19T23:12:45.080Z,2.43
2022-08-19T23:15:33.039Z,2.93
2022-08-19T23:18:23.306Z,2.53
2022-08-19T23:21:11.420Z,2.50
2022-08-19T23:23:58.743Z,2.30
2022-08-19T23:27:04.564Z,2.30
2022-08-19T23:30:10.300Z,2.27
2022-08-19T23:33:00.944Z,2.03
2022-08-19T23:35:48.747Z,2.10
2022-08-19T23:38:36.051Z,1.90
2022-08-19T23:41:23.640Z,2.10
2022-08-19T23:44:14.955Z,2.40
2022-08-19T23:47:04.804Z,2.50
2022-08-19T23:49:54.142Z,2.10
2022-08-19T23:52:50.784Z,2.13
2022-08-19T23:55:41.154Z,2.13
2022-08-19T23:58:30.294Z,2.10
